»·PEaware :: UAL1399 KBOI-KIDA

UAL1399 :: KBOI-KIDA

FLIGHT INFORMATION

Flight Status: Arrived
Operator:
United Airlines
More flights by this operator :: More flights under this callsign
Pilot: David C. (16084)
Aircraft: AIRBUS A320
(A320)
More flights by this aircraft type
Origin: KBOI Boise Air Terminal/Gowen
United States
Destination: KIDA Idaho Falls Regl
United States
More flights between these airports :: More routes between these airports
Route: +BOI3 BOI NATZZ IDA
File this flight plan on PilotEdge
Remarks:
Altitude:
(Current/Filed)
25,000ft
Speed:
(Current/Filed)
474kts
Departed: 13-Aug-18 09:28 AM
Arrived: 13-Aug-18 10:08 AM
Distance/Time
Traveled:
181nm/0:40
Distance/Time
To Go:
Arrived

Flight Plot

Page will automatically refresh every two minutes.

Flight plan parsing failed; only flown route is shown


Map Options




Map Legend


Flown Route
Filed Route
Departure Airport
Arrival Airport
Navaid (VOR, NDB)
Fix

Horizontal Profiles

Position Reports

Time Latitude Longitude Heading Altitude Ground
Speed
13-Aug-18 08:33 43.567589 -116.219150 205 2880ft 0kts
13-Aug-18 08:34 43.567589 -116.219150 205 2880ft 0kts
13-Aug-18 08:35 43.567589 -116.219150 205 2880ft 0kts
13-Aug-18 08:36 43.567589 -116.219150 205 2880ft 0kts
13-Aug-18 08:37 43.567589 -116.219150 205 2880ft 0kts
13-Aug-18 08:38 43.567589 -116.219150 205 2880ft 0kts
13-Aug-18 08:39 43.567589 -116.219150 205 2880ft 0kts
13-Aug-18 08:40 43.567589 -116.219150 205 2880ft 0kts
13-Aug-18 08:41 43.567589 -116.219150 205 2880ft 0kts
13-Aug-18 08:42 43.567589 -116.219150 205 2880ft 0kts
13-Aug-18 08:43 43.567589 -116.219150 205 2880ft 0kts
13-Aug-18 08:44 43.567589 -116.219150 205 2880ft 0kts
13-Aug-18 08:45 43.567589 -116.219150 205 2880ft 0kts
13-Aug-18 08:46 43.567589 -116.219150 205 2880ft 0kts
13-Aug-18 08:47 43.567589 -116.219150 205 2880ft 0kts
13-Aug-18 08:48 43.567589 -116.219150 205 2880ft 0kts
13-Aug-18 08:49 43.567589 -116.219150 205 2880ft 0kts
13-Aug-18 08:50 43.567589 -116.219150 205 2880ft 0kts
13-Aug-18 08:51 43.567589 -116.219150 205 2880ft 0kts
13-Aug-18 08:52 43.567589 -116.219150 205 2880ft 0kts
13-Aug-18 08:53 43.567589 -116.219150 205 2880ft 0kts
13-Aug-18 08:54 43.567589 -116.219150 205 2880ft 0kts
13-Aug-18 08:55 43.567589 -116.219150 205 2880ft 0kts
13-Aug-18 08:56 43.567589 -116.219150 205 2880ft 0kts
13-Aug-18 08:57 43.567589 -116.219150 205 2880ft 0kts
13-Aug-18 08:58 43.567589 -116.219150 205 2880ft 0kts
13-Aug-18 08:59 43.567589 -116.219150 205 2880ft 0kts
13-Aug-18 09:00 43.567589 -116.219150 205 2880ft 0kts
13-Aug-18 09:01 43.567589 -116.219150 205 2880ft 0kts
13-Aug-18 09:02 43.567589 -116.219150 205 2880ft 0kts
13-Aug-18 09:03 43.567589 -116.219150 205 2880ft 0kts
13-Aug-18 09:04 43.567589 -116.219150 205 2880ft 0kts
13-Aug-18 09:05 43.567589 -116.219150 205 2880ft 0kts
13-Aug-18 09:06 43.567589 -116.219150 205 2880ft 0kts
13-Aug-18 09:07 43.567589 -116.219150 205 2880ft 0kts
13-Aug-18 09:08 43.567589 -116.219150 205 2880ft 0kts
13-Aug-18 09:09 43.567589 -116.219150 205 2880ft 0kts
13-Aug-18 09:10 43.567589 -116.219150 205 2880ft 0kts
13-Aug-18 09:11 43.567589 -116.219150 205 2880ft 0kts
13-Aug-18 09:12 43.567873 -116.219100 165 2880ft 2kts
13-Aug-18 09:13 43.568234 -116.219677 110 2880ft 1kts
13-Aug-18 09:14 43.568242 -116.219707 110 2880ft 0kts
13-Aug-18 09:15 43.568242 -116.219707 110 2880ft 0kts
13-Aug-18 09:16 43.568242 -116.219707 110 2880ft 0kts
13-Aug-18 09:17 43.568242 -116.219707 110 2880ft 0kts
13-Aug-18 09:18 43.568242 -116.219707 110 2880ft 0kts
13-Aug-18 09:19 43.568242 -116.219707 110 2880ft 0kts
13-Aug-18 09:20 43.568242 -116.219707 110 2880ft 0kts
13-Aug-18 09:21 43.568189 -116.219514 110 2880ft 5kts
13-Aug-18 09:22 43.565527 -116.217310 173 2880ft 14kts
13-Aug-18 09:23 43.563463 -116.213602 116 2880ft 12kts
13-Aug-18 09:24 43.561675 -116.208353 115 2880ft 17kts
13-Aug-18 09:25 43.559789 -116.202754 127 2880ft 10kts
13-Aug-18 09:26 43.559627 -116.202557 151 2880ft 0kts
13-Aug-18 09:27 43.559627 -116.202557 151 2880ft 0kts
13-Aug-18 09:28 43.558831 -116.202722 230 2880ft 8kts
13-Aug-18 09:29 43.562512 -116.214407 295 2881ft 133kts
13-Aug-18 09:30 43.582557 -116.278589 291 4778ft 213kts
13-Aug-18 09:31 43.604911 -116.355346 292 7823ft 220kts
13-Aug-18 09:32 43.575366 -116.412008 173 10537ft 244kts
13-Aug-18 09:33 43.529528 -116.339676 95 12459ft 307kts
13-Aug-18 09:34 43.534652 -116.219431 84 15144ft 325kts
13-Aug-18 09:35 43.540900 -116.094917 85 16703ft 336kts
13-Aug-18 09:36 43.546625 -115.963413 85 19045ft 352kts
13-Aug-18 09:37 43.552268 -115.827105 85 21149ft 367kts
13-Aug-18 09:38 43.557944 -115.685201 86 23070ft 381kts
13-Aug-18 09:39 43.563643 -115.538023 86 24846ft 394kts
13-Aug-18 09:40 43.569453 -115.381265 86 25174ft 440kts
13-Aug-18 09:41 43.571985 -115.208150 90 25193ft 484kts
13-Aug-18 09:42 43.571221 -115.016187 91 25244ft 515kts
13-Aug-18 09:43 43.570137 -114.817420 91 25262ft 523kts
13-Aug-18 09:44 43.568683 -114.616746 91 25262ft 523kts
13-Aug-18 09:45 43.566876 -114.418356 91 25262ft 523kts
13-Aug-18 09:46 43.564717 -114.219337 91 25261ft 523kts
13-Aug-18 09:47 43.562195 -114.019143 91 25259ft 523kts
13-Aug-18 09:48 43.559327 -113.819261 91 25261ft 523kts
13-Aug-18 09:49 43.556110 -113.619228 91 25264ft 523kts
13-Aug-18 09:50 43.552544 -113.419218 91 25009ft 522kts
13-Aug-18 09:51 43.548740 -113.223180 92 22829ft 508kts
13-Aug-18 09:52 43.544704 -113.032286 92 20446ft 486kts
13-Aug-18 09:53 43.540589 -112.851945 91 18175ft 438kts
13-Aug-18 09:54 43.537035 -112.701428 91 16897ft 353kts
13-Aug-18 09:55 43.533609 -112.568867 91 15221ft 344kts
13-Aug-18 09:56 43.530166 -112.441000 91 13585ft 316kts
13-Aug-18 09:57 43.527047 -112.327099 91 11975ft 291kts
13-Aug-18 09:58 43.523926 -112.218450 92 10405ft 280kts
13-Aug-18 09:59 43.520822 -112.113650 92 9538ft 257kts
13-Aug-18 10:00 43.549140 -112.031905 35 8659ft 254kts
13-Aug-18 10:01 43.604839 -111.974046 35 7757ft 250kts
13-Aug-18 10:02 43.670814 -111.968548 350 6860ft 243kts
13-Aug-18 10:03 43.709199 -111.920550 112 6755ft 201kts
13-Aug-18 10:04 43.665078 -111.910622 216 6721ft 183kts
13-Aug-18 10:05 43.629085 -111.949475 217 6723ft 174kts
13-Aug-18 10:06 43.590763 -111.990538 217 6456ft 174kts
13-Aug-18 10:07 43.552982 -112.031071 217 5536ft 163kts
13-Aug-18 10:08 43.520388 -112.065973 215 4770ft 146kts
13-Aug-18 10:09 43.505609 -112.081529 178 4747ft 15kts
13-Aug-18 10:10 43.506840 -112.078586 37 4747ft 15kts
13-Aug-18 10:11 43.510794 -112.074304 39 4747ft 17kts
13-Aug-18 10:12 43.514055 -112.070824 36 4747ft 19kts
13-Aug-18 10:13 43.515291 -112.068656 169 4747ft 0kts
13-Aug-18 10:14 43.515291 -112.068657 169 4747ft 0kts
13-Aug-18 10:15 43.515291 -112.068657 169 4747ft 0kts
13-Aug-18 10:16 43.515291 -112.068657 169 4747ft 0kts
13-Aug-18 10:17 43.515291 -112.068657 169 4747ft 0kts
13-Aug-18 10:18 43.515291 -112.068657 169 4747ft 0kts
13-Aug-18 10:19 43.515291 -112.068657 169 4747ft 0kts

Navigation Log

Ident Type
Flight plan parsing failed, navigation log unavailable